Chiang Mai International Airport
VTCC : now visible

Aeroporto :











RITROVATECI SU...

 
LOGIN :

Iscrizione | Disclaimer

   EN    FR    IT 

 









Sommario :    VFR   VFR Marginale   IFR   IFR Intensivo   IFR Molto Intensivo
Visibilità : 
Base nubi : 
>= 8 km
>= 3000ft
5 / 8 km
1000 / 3000 ft
1500m / 5 km
500 / 1000 ft
800 / 1500m
200 / 500 ft
< 800m
< 200 ft
Simboli :   Temporali  Nebbia  Neve Forte  Precipitazioni Forti  Vento > 20 kt






- Altitudine del aeroporto : 1036 ft
- Codice IATA : CNX


VTCC - Chiang Mai International

ULTIMO METAR :
  • 011030Z 17007KT 8000 NSC 39/06 Q1004 NOSIG

METARs OBSOLETI :
  • 011000Z 16009KT 8000 NSC 40/06 Q1004 NOSIG
  • 010930Z 13008KT 090V170 8000 NSC 40/06 Q1004 NOSIG
  • 010900Z 19007KT 120V240 8000 NSC 41/05 Q1004 NOSIG
  • 010830Z 17011KT 130V200 8000 NSC 41/05 Q1005 NOSIG
  • 010800Z 18011KT 150V210 8000 NSC 40/08 Q1005 NOSIG
  • 010730Z 18008KT 140V250 8000 NSC 39/09 Q1006 NOSIG

TAF TAF VTCC
Valido dal 01 a 06 ore il 02 a 12 ore UTC


010500Z 0106/0212 22005KT 8000 NSC
BECMG 0201/0203 4000 HZ
BECMG 0206/0208 8000 NSW



MetMap, La meteo Aeronautica in un colpo d'occhio ! - Copyright ORBIFLY Dicembre 2007 - Disclaimer

ORBIFLY MET'MAP TEAM :

Programmazione e sviluppo : Alexandra Zaïnal
Concezione : Baudouin d'Aumeries
Aiuto per la programmazione : Marc-Olivier Méhu
Supporto tecnico e logistico : Manuel Goepfert
Aiuto per la traduzione : Arnaldo La Scala

Contatto : metmap@orbifly.com




FONTI E CREDITI :

   NOAA       Earth
Advisory